sensor_id;sensor_type;location;lat;lon;timestamp;temperature;humidity
75865;HTU21D;64510;46.704;38.274;2023-02-28T00:01:29;8.33;85.00
75865;HTU21D;64510;46.704;38.274;2023-02-28T00:03:55;8.29;85.13
75865;HTU21D;64510;46.704;38.274;2023-02-28T00:06:21;8.23;85.23
75865;HTU21D;64510;46.704;38.274;2023-02-28T00:08:47;8.19;85.29
75865;HTU21D;64510;46.704;38.274;2023-02-28T00:11:14;8.15;85.34
75865;HTU21D;64510;46.704;38.274;2023-02-28T00:13:43;8.12;85.38
75865;HTU21D;64510;46.704;38.274;2023-02-28T00:16:13;8.09;85.50
75865;HTU21D;64510;46.704;38.274;2023-02-28T00:18:39;8.02;85.29
75865;HTU21D;64510;46.704;38.274;2023-02-28T00:21:05;7.97;85.30
75865;HTU21D;64510;46.704;38.274;2023-02-28T00:23:32;7.93;85.38
75865;HTU21D;64510;46.704;38.274;2023-02-28T00:25:58;7.90;85.44
75865;HTU21D;64510;46.704;38.274;2023-02-28T00:28:24;7.85;85.55
75865;HTU21D;64510;46.704;38.274;2023-02-28T00:30:50;7.79;85.61
75865;HTU21D;64510;46.704;38.274;2023-02-28T00:33:16;7.74;85.77
75865;HTU21D;64510;46.704;38.274;2023-02-28T00:35:42;7.69;85.84
75865;HTU21D;64510;46.704;38.274;2023-02-28T00:38:09;7.64;85.87
75865;HTU21D;64510;46.704;38.274;2023-02-28T00:40:34;7.61;85.92
75865;HTU21D;64510;46.704;38.274;2023-02-28T00:43:00;7.57;85.94
75865;HTU21D;64510;46.704;38.274;2023-02-28T00:45:26;7.54;86.00
75865;HTU21D;64510;46.704;38.274;2023-02-28T00:47:52;7.49;86.03
75865;HTU21D;64510;46.704;38.274;2023-02-28T00:50:19;7.47;86.14
75865;HTU21D;64510;46.704;38.274;2023-02-28T00:52:46;7.44;86.12
75865;HTU21D;64510;46.704;38.274;2023-02-28T00:55:13;7.42;86.20
75865;HTU21D;64510;46.704;38.274;2023-02-28T00:57:39;7.38;86.31
75865;HTU21D;64510;46.704;38.274;2023-02-28T01:00:06;7.33;86.31
75865;HTU21D;64510;46.704;38.274;2023-02-28T01:02:32;7.31;86.35
75865;HTU21D;64510;46.704;38.274;2023-02-28T01:04:58;7.27;86.39
75865;HTU21D;64510;46.704;38.274;2023-02-28T01:07:24;7.23;86.48
75865;HTU21D;64510;46.704;38.274;2023-02-28T01:09:50;7.22;86.54
75865;HTU21D;64510;46.704;38.274;2023-02-28T01:12:16;7.19;86.56
75865;HTU21D;64510;46.704;38.274;2023-02-28T01:14:42;7.17;86.67
75865;HTU21D;64510;46.704;38.274;2023-02-28T01:17:08;7.16;86.61
75865;HTU21D;64510;46.704;38.274;2023-02-28T01:19:34;7.15;86.66
75865;HTU21D;64510;46.704;38.274;2023-02-28T01:22:03;7.12;86.74
75865;HTU21D;64510;46.704;38.274;2023-02-28T01:24:29;7.09;86.83
75865;HTU21D;64510;46.704;38.274;2023-02-28T01:26:55;7.08;86.89
75865;HTU21D;64510;46.704;38.274;2023-02-28T01:29:20;7.05;86.99
75865;HTU21D;64510;46.704;38.274;2023-02-28T01:31:46;7.04;87.02
75865;HTU21D;64510;46.704;38.274;2023-02-28T01:34:12;7.03;87.11
75865;HTU21D;64510;46.704;38.274;2023-02-28T01:36:38;7.03;87.09
75865;HTU21D;64510;46.704;38.274;2023-02-28T01:39:04;7.04;87.19
75865;HTU21D;64510;46.704;38.274;2023-02-28T01:41:32;7.05;87.09
75865;HTU21D;64510;46.704;38.274;2023-02-28T01:47:02;6.99;87.15
75865;HTU21D;64510;46.704;38.274;2023-02-28T01:49:28;6.96;87.19
75865;HTU21D;64510;46.704;38.274;2023-02-28T01:51:55;6.94;87.29
75865;HTU21D;64510;46.704;38.274;2023-02-28T01:54:27;6.91;87.36
75865;HTU21D;64510;46.704;38.274;2023-02-28T01:57:01;6.90;87.45
75865;HTU21D;64510;46.704;38.274;2023-02-28T01:59:52;6.90;87.68
75865;HTU21D;64510;46.704;38.274;2023-02-28T02:02:21;6.87;87.55
75865;HTU21D;64510;46.704;38.274;2023-02-28T02:04:55;6.87;87.69
75865;HTU21D;64510;46.704;38.274;2023-02-28T02:07:23;6.85;87.70
75865;HTU21D;64510;46.704;38.274;2023-02-28T02:09:56;6.84;87.74
75865;HTU21D;64510;46.704;38.274;2023-02-28T02:12:38;6.81;87.78
75865;HTU21D;64510;46.704;38.274;2023-02-28T02:17:56;6.72;87.93
75865;HTU21D;64510;46.704;38.274;2023-02-28T02:31:32;6.59;88.22
75865;HTU21D;64510;46.704;38.274;2023-02-28T02:34:39;6.60;88.38
75865;HTU21D;64510;46.704;38.274;2023-02-28T02:37:48;6.59;88.38
75865;HTU21D;64510;46.704;38.274;2023-02-28T02:40:33;6.54;88.31
75865;HTU21D;64510;46.704;38.274;2023-02-28T02:43:19;6.50;88.38
75865;HTU21D;64510;46.704;38.274;2023-02-28T02:45:53;6.45;88.48
75865;HTU21D;64510;46.704;38.274;2023-02-28T02:48:25;6.39;88.53
75865;HTU21D;64510;46.704;38.274;2023-02-28T02:50:55;6.35;88.64
75865;HTU21D;64510;46.704;38.274;2023-02-28T02:53:24;6.35;88.69
75865;HTU21D;64510;46.704;38.274;2023-02-28T02:55:53;6.25;88.46
75865;HTU21D;64510;46.704;38.274;2023-02-28T02:58:25;6.24;88.64
75865;HTU21D;64510;46.704;38.274;2023-02-28T03:00:53;6.21;88.76
75865;HTU21D;64510;46.704;38.274;2023-02-28T03:03:20;6.16;88.54
75865;HTU21D;64510;46.704;38.274;2023-02-28T03:05:59;6.13;88.69
75865;HTU21D;64510;46.704;38.274;2023-02-28T03:08:28;6.10;88.77
75865;HTU21D;64510;46.704;38.274;2023-02-28T03:11:01;6.10;88.94
75865;HTU21D;64510;46.704;38.274;2023-02-28T03:19:39;6.09;89.18
75865;HTU21D;64510;46.704;38.274;2023-02-28T03:25:16;6.08;89.11
75865;HTU21D;64510;46.704;38.274;2023-02-28T03:27:49;6.06;89.15
75865;HTU21D;64510;46.704;38.274;2023-02-28T03:30:39;6.04;89.09
75865;HTU21D;64510;46.704;38.274;2023-02-28T03:33:17;5.98;89.28
75865;HTU21D;64510;46.704;38.274;2023-02-28T03:35:54;5.96;89.41
75865;HTU21D;64510;46.704;38.274;2023-02-28T03:38:41;5.94;89.51
75865;HTU21D;64510;46.704;38.274;2023-02-28T03:41:16;5.92;89.60
75865;HTU21D;64510;46.704;38.274;2023-02-28T03:44:38;5.90;89.86
75865;HTU21D;64510;46.704;38.274;2023-02-28T03:47:04;5.85;89.76
75865;HTU21D;64510;46.704;38.274;2023-02-28T03:49:38;5.81;89.75
75865;HTU21D;64510;46.704;38.274;2023-02-28T03:52:09;5.79;89.98
75865;HTU21D;64510;46.704;38.274;2023-02-28T03:54:42;5.78;90.18
75865;HTU21D;64510;46.704;38.274;2023-02-28T03:57:26;5.74;90.34
75865;HTU21D;64510;46.704;38.274;2023-02-28T04:00:20;5.70;90.38
75865;HTU21D;64510;46.704;38.274;2023-02-28T04:02:46;5.66;90.41
75865;HTU21D;64510;46.704;38.274;2023-02-28T04:05:19;5.63;90.43
75865;HTU21D;64510;46.704;38.274;2023-02-28T04:07:46;5.61;90.56
75865;HTU21D;64510;46.704;38.274;2023-02-28T04:10:13;5.61;90.66
75865;HTU21D;64510;46.704;38.274;2023-02-28T04:12:39;5.59;90.72
75865;HTU21D;64510;46.704;38.274;2023-02-28T04:15:05;5.60;90.75
75865;HTU21D;64510;46.704;38.274;2023-02-28T04:17:31;5.59;90.85
75865;HTU21D;64510;46.704;38.274;2023-02-28T04:19:57;5.61;90.90
75865;HTU21D;64510;46.704;38.274;2023-02-28T04:22:23;5.63;90.98
75865;HTU21D;64510;46.704;38.274;2023-02-28T04:24:52;5.69;91.11
75865;HTU21D;64510;46.704;38.274;2023-02-28T04:27:20;5.78;91.11
75865;HTU21D;64510;46.704;38.274;2023-02-28T04:29:47;5.87;91.10
75865;HTU21D;64510;46.704;38.274;2023-02-28T04:32:13;5.97;91.10
75865;HTU21D;64510;46.704;38.274;2023-02-28T04:34:39;6.09;91.15
75865;HTU21D;64510;46.704;38.274;2023-02-28T04:37:05;6.19;91.21
75865;HTU21D;64510;46.704;38.274;2023-02-28T04:39:35;6.26;91.16
75865;HTU21D;64510;46.704;38.274;2023-02-28T04:42:01;6.26;91.15
75865;HTU21D;64510;46.704;38.274;2023-02-28T04:44:27;6.29;91.14
75865;HTU21D;64510;46.704;38.274;2023-02-28T04:46:53;6.28;91.14
75865;HTU21D;64510;46.704;38.274;2023-02-28T04:49:18;6.27;91.21
75865;HTU21D;64510;46.704;38.274;2023-02-28T04:51:44;6.27;91.32
75865;HTU21D;64510;46.704;38.274;2023-02-28T04:54:10;6.27;91.40
75865;HTU21D;64510;46.704;38.274;2023-02-28T04:56:36;6.27;91.45
75865;HTU21D;64510;46.704;38.274;2023-02-28T04:59:02;6.29;91.56
75865;HTU21D;64510;46.704;38.274;2023-02-28T05:01:30;6.33;91.63
75865;HTU21D;64510;46.704;38.274;2023-02-28T05:03:58;6.38;91.49
75865;HTU21D;64510;46.704;38.274;2023-02-28T05:06:26;6.38;91.49
75865;HTU21D;64510;46.704;38.274;2023-02-28T05:08:53;6.42;91.64
75865;HTU21D;64510;46.704;38.274;2023-02-28T05:13:48;6.48;91.66
75865;HTU21D;64510;46.704;38.274;2023-02-28T05:16:15;6.51;91.69
75865;HTU21D;64510;46.704;38.274;2023-02-28T05:18:41;6.54;91.77
75865;HTU21D;64510;46.704;38.274;2023-02-28T05:23:51;6.64;91.69
75865;HTU21D;64510;46.704;38.274;2023-02-28T05:26:18;6.70;91.65
75865;HTU21D;64510;46.704;38.274;2023-02-28T05:28:44;6.75;91.65
75865;HTU21D;64510;46.704;38.274;2023-02-28T05:31:13;6.75;91.67
75865;HTU21D;64510;46.704;38.274;2023-02-28T05:33:39;6.73;91.82
75865;HTU21D;64510;46.704;38.274;2023-02-28T05:36:06;6.71;92.20
75865;HTU21D;64510;46.704;38.274;2023-02-28T05:38:32;6.80;92.41
75865;HTU21D;64510;46.704;38.274;2023-02-28T05:40:58;6.88;92.41
75865;HTU21D;64510;46.704;38.274;2023-02-28T05:43:24;6.94;92.61
75865;HTU21D;64510;46.704;38.274;2023-02-28T05:45:50;6.98;92.75
75865;HTU21D;64510;46.704;38.274;2023-02-28T05:48:16;6.99;92.92
75865;HTU21D;64510;46.704;38.274;2023-02-28T05:50:43;6.99;93.08
75865;HTU21D;64510;46.704;38.274;2023-02-28T05:53:11;7.04;93.21
75865;HTU21D;64510;46.704;38.274;2023-02-28T05:55:37;7.09;93.11
75865;HTU21D;64510;46.704;38.274;2023-02-28T05:58:03;7.08;93.03
75865;HTU21D;64510;46.704;38.274;2023-02-28T06:00:29;7.09;93.01
75865;HTU21D;64510;46.704;38.274;2023-02-28T06:02:55;7.04;92.85
75865;HTU21D;64510;46.704;38.274;2023-02-28T06:05:23;6.98;92.91
75865;HTU21D;64510;46.704;38.274;2023-02-28T06:07:50;6.90;92.95
75865;HTU21D;64510;46.704;38.274;2023-02-28T06:10:16;6.88;93.04
75865;HTU21D;64510;46.704;38.274;2023-02-28T06:12:42;6.90;92.90
75865;HTU21D;64510;46.704;38.274;2023-02-28T06:15:12;6.89;92.80
75865;HTU21D;64510;46.704;38.274;2023-02-28T06:17:38;6.85;92.71
75865;HTU21D;64510;46.704;38.274;2023-02-28T06:20:05;6.87;92.67
75865;HTU21D;64510;46.704;38.274;2023-02-28T06:22:31;6.90;92.69
75865;HTU21D;64510;46.704;38.274;2023-02-28T06:24:57;6.94;92.52
75865;HTU21D;64510;46.704;38.274;2023-02-28T06:27:23;6.95;92.47
75865;HTU21D;64510;46.704;38.274;2023-02-28T06:29:53;7.00;92.44
75865;HTU21D;64510;46.704;38.274;2023-02-28T06:32:19;6.99;92.25
75865;HTU21D;64510;46.704;38.274;2023-02-28T06:34:45;6.97;92.34
75865;HTU21D;64510;46.704;38.274;2023-02-28T06:37:11;7.09;92.40
75865;HTU21D;64510;46.704;38.274;2023-02-28T06:39:37;7.24;92.23
75865;HTU21D;64510;46.704;38.274;2023-02-28T06:42:03;7.37;92.04
75865;HTU21D;64510;46.704;38.274;2023-02-28T06:44:29;7.50;92.05
75865;HTU21D;64510;46.704;38.274;2023-02-28T06:47:05;7.68;92.06
75865;HTU21D;64510;46.704;38.274;2023-02-28T06:49:33;7.83;91.84
75865;HTU21D;64510;46.704;38.274;2023-02-28T06:51:59;7.87;91.77
75865;HTU21D;64510;46.704;38.274;2023-02-28T06:54:25;7.96;91.75
75865;HTU21D;64510;46.704;38.274;2023-02-28T06:56:51;8.12;91.55
75865;HTU21D;64510;46.704;38.274;2023-02-28T06:59:19;8.24;91.39
75865;HTU21D;64510;46.704;38.274;2023-02-28T07:01:45;8.42;91.22
75865;HTU21D;64510;46.704;38.274;2023-02-28T07:04:10;8.53;91.15
75865;HTU21D;64510;46.704;38.274;2023-02-28T07:06:38;8.63;90.86
75865;HTU21D;64510;46.704;38.274;2023-02-28T07:09:04;8.71;90.66
75865;HTU21D;64510;46.704;38.274;2023-02-28T07:11:30;8.65;90.37
75865;HTU21D;64510;46.704;38.274;2023-02-28T07:13:57;8.67;90.36
75865;HTU21D;64510;46.704;38.274;2023-02-28T07:16:24;8.70;90.02
75865;HTU21D;64510;46.704;38.274;2023-02-28T07:18:52;8.55;89.75
75865;HTU21D;64510;46.704;38.274;2023-02-28T07:21:18;8.39;89.86
75865;HTU21D;64510;46.704;38.274;2023-02-28T07:23:44;8.37;89.99
75865;HTU21D;64510;46.704;38.274;2023-02-28T07:26:15;8.33;89.85
75865;HTU21D;64510;46.704;38.274;2023-02-28T07:28:43;8.11;89.83
75865;HTU21D;64510;46.704;38.274;2023-02-28T07:31:10;7.97;89.50
75865;HTU21D;64510;46.704;38.274;2023-02-28T07:33:37;7.71;89.73
75865;HTU21D;64510;46.704;38.274;2023-02-28T07:36:06;7.55;90.04
75865;HTU21D;64510;46.704;38.274;2023-02-28T07:38:36;7.49;90.08
75865;HTU21D;64510;46.704;38.274;2023-02-28T07:41:03;7.32;90.05
75865;HTU21D;64510;46.704;38.274;2023-02-28T07:43:34;7.24;90.22
75865;HTU21D;64510;46.704;38.274;2023-02-28T07:46:12;7.19;90.02
75865;HTU21D;64510;46.704;38.274;2023-02-28T07:48:38;7.11;90.12
75865;HTU21D;64510;46.704;38.274;2023-02-28T07:51:04;7.09;90.14
75865;HTU21D;64510;46.704;38.274;2023-02-28T07:53:30;7.05;90.18
75865;HTU21D;64510;46.704;38.274;2023-02-28T07:55:57;7.03;89.96
75865;HTU21D;64510;46.704;38.274;2023-02-28T07:58:24;6.87;90.03
75865;HTU21D;64510;46.704;38.274;2023-02-28T08:00:51;6.80;90.50
75865;HTU21D;64510;46.704;38.274;2023-02-28T08:03:18;6.81;90.47
75865;HTU21D;64510;46.704;38.274;2023-02-28T08:05:45;6.78;90.55
75865;HTU21D;64510;46.704;38.274;2023-02-28T08:08:11;6.74;90.44
75865;HTU21D;64510;46.704;38.274;2023-02-28T08:10:37;6.67;90.55
75865;HTU21D;64510;46.704;38.274;2023-02-28T08:13:03;6.64;90.61
75865;HTU21D;64510;46.704;38.274;2023-02-28T08:15:29;6.61;90.79
75865;HTU21D;64510;46.704;38.274;2023-02-28T08:17:55;6.66;90.78
75865;HTU21D;64510;46.704;38.274;2023-02-28T08:20:23;6.74;90.80
75865;HTU21D;64510;46.704;38.274;2023-02-28T08:22:49;6.82;90.59
75865;HTU21D;64510;46.704;38.274;2023-02-28T08:25:15;6.84;90.53
75865;HTU21D;64510;46.704;38.274;2023-02-28T08:27:41;6.85;90.74
75865;HTU21D;64510;46.704;38.274;2023-02-28T08:30:10;6.90;90.60
75865;HTU21D;64510;46.704;38.274;2023-02-28T08:32:36;6.89;90.56
75865;HTU21D;64510;46.704;38.274;2023-02-28T08:35:02;6.90;90.42
75865;HTU21D;64510;46.704;38.274;2023-02-28T08:37:28;6.83;90.53
75865;HTU21D;64510;46.704;38.274;2023-02-28T08:39:54;6.81;90.57
75865;HTU21D;64510;46.704;38.274;2023-02-28T08:42:20;6.75;90.63
75865;HTU21D;64510;46.704;38.274;2023-02-28T08:44:46;6.72;90.75
75865;HTU21D;64510;46.704;38.274;2023-02-28T08:47:12;6.67;90.82
75865;HTU21D;64510;46.704;38.274;2023-02-28T08:49:38;6.60;90.84
75865;HTU21D;64510;46.704;38.274;2023-02-28T08:52:04;6.46;90.98
75865;HTU21D;64510;46.704;38.274;2023-02-28T08:54:30;6.38;91.26
75865;HTU21D;64510;46.704;38.274;2023-02-28T08:56:57;6.44;91.39
75865;HTU21D;64510;46.704;38.274;2023-02-28T08:59:23;6.54;91.23
75865;HTU21D;64510;46.704;38.274;2023-02-28T09:01:49;6.60;91.05
75865;HTU21D;64510;46.704;38.274;2023-02-28T09:04:15;6.58;90.91
75865;HTU21D;64510;46.704;38.274;2023-02-28T09:06:41;6.53;91.00
75865;HTU21D;64510;46.704;38.274;2023-02-28T09:09:06;6.49;91.12
75865;HTU21D;64510;46.704;38.274;2023-02-28T09:11:34;6.51;91.24
75865;HTU21D;64510;46.704;38.274;2023-02-28T09:14:01;6.53;91.24
75865;HTU21D;64510;46.704;38.274;2023-02-28T09:16:30;6.52;91.21
75865;HTU21D;64510;46.704;38.274;2023-02-28T09:18:56;6.56;91.24
75865;HTU21D;64510;46.704;38.274;2023-02-28T09:21:22;6.58;91.26
75865;HTU21D;64510;46.704;38.274;2023-02-28T09:23:49;6.58;91.27
75865;HTU21D;64510;46.704;38.274;2023-02-28T09:26:18;6.54;91.16
75865;HTU21D;64510;46.704;38.274;2023-02-28T09:28:45;6.41;91.40
75865;HTU21D;64510;46.704;38.274;2023-02-28T09:31:16;6.36;91.72
75865;HTU21D;64510;46.704;38.274;2023-02-28T09:33:50;6.35;91.76
75865;HTU21D;64510;46.704;38.274;2023-02-28T09:36:16;6.35;91.77
75865;HTU21D;64510;46.704;38.274;2023-02-28T09:38:42;6.31;91.81
75865;HTU21D;64510;46.704;38.274;2023-02-28T09:41:20;6.28;91.96
75865;HTU21D;64510;46.704;38.274;2023-02-28T09:43:50;6.27;91.95
75865;HTU21D;64510;46.704;38.274;2023-02-28T09:46:31;6.25;91.98
75865;HTU21D;64510;46.704;38.274;2023-02-28T09:49:33;6.17;92.08
75865;HTU21D;64510;46.704;38.274;2023-02-28T09:52:02;6.08;92.16
75865;HTU21D;64510;46.704;38.274;2023-02-28T09:54:31;6.07;92.27
75865;HTU21D;64510;46.704;38.274;2023-02-28T09:59:39;6.17;92.21
75865;HTU21D;64510;46.704;38.274;2023-02-28T10:05:17;6.30;92.14
75865;HTU21D;64510;46.704;38.274;2023-02-28T10:08:04;6.33;92.04
75865;HTU21D;64510;46.704;38.274;2023-02-28T10:10:40;6.28;92.02
75865;HTU21D;64510;46.704;38.274;2023-02-28T10:13:27;6.34;92.23
75865;HTU21D;64510;46.704;38.274;2023-02-28T10:16:08;6.46;92.14
75865;HTU21D;64510;46.704;38.274;2023-02-28T10:18:58;6.64;91.88
75865;HTU21D;64510;46.704;38.274;2023-02-28T10:21:39;6.78;91.66
75865;HTU21D;64510;46.704;38.274;2023-02-28T10:26:45;6.82;91.53
75865;HTU21D;64510;46.704;38.274;2023-02-28T10:29:13;6.82;91.54
75865;HTU21D;64510;46.704;38.274;2023-02-28T10:31:40;6.84;91.57
75865;HTU21D;64510;46.704;38.274;2023-02-28T10:34:07;6.88;91.43
75865;HTU21D;64510;46.704;38.274;2023-02-28T10:36:33;6.88;91.39
75865;HTU21D;64510;46.704;38.274;2023-02-28T10:38:59;6.91;91.40
75865;HTU21D;64510;46.704;38.274;2023-02-28T10:41:32;7.00;91.20
75865;HTU21D;64510;46.704;38.274;2023-02-28T10:44:20;6.96;91.08
75865;HTU21D;64510;46.704;38.274;2023-02-28T10:46:48;6.88;91.05
75865;HTU21D;64510;46.704;38.274;2023-02-28T10:49:20;6.79;91.15
75865;HTU21D;64510;46.704;38.274;2023-02-28T10:51:51;6.69;91.24
75865;HTU21D;64510;46.704;38.274;2023-02-28T10:57:28;6.42;91.38
75865;HTU21D;64510;46.704;38.274;2023-02-28T11:00:32;6.30;91.36
75865;HTU21D;64510;46.704;38.274;2023-02-28T11:02:58;6.19;91.43
75865;HTU21D;64510;46.704;38.274;2023-02-28T11:05:30;6.11;91.53
75865;HTU21D;64510;46.704;38.274;2023-02-28T11:10:28;5.96;91.67
75865;HTU21D;64510;46.704;38.274;2023-02-28T11:12:56;5.92;91.68
75865;HTU21D;64510;46.704;38.274;2023-02-28T11:15:25;5.84;91.56
75865;HTU21D;64510;46.704;38.274;2023-02-28T11:18:20;5.76;91.70
75865;HTU21D;64510;46.704;38.274;2023-02-28T11:20:42;5.69;91.74
75865;HTU21D;64510;46.704;38.274;2023-02-28T11:23:14;5.53;91.78
75865;HTU21D;64510;46.704;38.274;2023-02-28T11:25:50;5.42;92.08
75865;HTU21D;64510;46.704;38.274;2023-02-28T11:28:34;5.38;92.21
75865;HTU21D;64510;46.704;38.274;2023-02-28T11:31:20;5.25;92.27
75865;HTU21D;64510;46.704;38.274;2023-02-28T11:33:54;5.15;92.60
75865;HTU21D;64510;46.704;38.274;2023-02-28T11:36:27;5.13;92.77
75865;HTU21D;64510;46.704;38.274;2023-02-28T11:39:04;5.15;92.72
75865;HTU21D;64510;46.704;38.274;2023-02-28T11:41:38;5.21;92.62
75865;HTU21D;64510;46.704;38.274;2023-02-28T11:47:19;5.18;92.44
75865;HTU21D;64510;46.704;38.274;2023-02-28T11:55:22;4.96;92.98
75865;HTU21D;64510;46.704;38.274;2023-02-28T12:19:17;4.82;94.04
75865;HTU21D;64510;46.704;38.274;2023-02-28T12:21:51;4.87;93.81
75865;HTU21D;64510;46.704;38.274;2023-02-28T12:27:10;4.93;93.81
75865;HTU21D;64510;46.704;38.274;2023-02-28T12:29:50;4.98;93.73
75865;HTU21D;64510;46.704;38.274;2023-02-28T12:32:33;5.07;93.59
75865;HTU21D;64510;46.704;38.274;2023-02-28T12:37:44;5.09;93.15
75865;HTU21D;64510;46.704;38.274;2023-02-28T12:40:19;4.96;93.24
75865;HTU21D;64510;46.704;38.274;2023-02-28T12:42:52;4.89;93.52
75865;HTU21D;64510;46.704;38.274;2023-02-28T12:45:24;4.87;93.64
75865;HTU21D;64510;46.704;38.274;2023-02-28T12:48:02;4.95;93.52
75865;HTU21D;64510;46.704;38.274;2023-02-28T12:50:29;4.96;93.36
75865;HTU21D;64510;46.704;38.274;2023-02-28T12:58:27;4.94;93.44
75865;HTU21D;64510;46.704;38.274;2023-02-28T13:01:16;4.96;93.37
75865;HTU21D;64510;46.704;38.274;2023-02-28T13:09:31;5.06;92.84
75865;HTU21D;64510;46.704;38.274;2023-02-28T13:11:57;5.04;92.88
75865;HTU21D;64510;46.704;38.274;2023-02-28T13:14:34;5.01;92.90
75865;HTU21D;64510;46.704;38.274;2023-02-28T13:19:57;5.04;92.92
75865;HTU21D;64510;46.704;38.274;2023-02-28T13:22:42;4.97;92.98
75865;HTU21D;64510;46.704;38.274;2023-02-28T13:27:48;4.91;93.08
75865;HTU21D;64510;46.704;38.274;2023-02-28T13:33:23;4.83;92.84
75865;HTU21D;64510;46.704;38.274;2023-02-28T13:38:45;4.76;93.07
75865;HTU21D;64510;46.704;38.274;2023-02-28T13:46:26;4.62;93.39
75865;HTU21D;64510;46.704;38.274;2023-02-28T13:48:52;4.69;93.38
75865;HTU21D;64510;46.704;38.274;2023-02-28T14:02:17;4.83;92.60
75865;HTU21D;64510;46.704;38.274;2023-02-28T14:05:00;4.68;92.85
75865;HTU21D;64510;46.704;38.274;2023-02-28T14:07:54;4.64;93.08
75865;HTU21D;64510;46.704;38.274;2023-02-28T14:10:28;4.68;92.97
75865;HTU21D;64510;46.704;38.274;2023-02-28T14:12:57;4.72;92.89
75865;HTU21D;64510;46.704;38.274;2023-02-28T14:18:14;4.77;92.65
75865;HTU21D;64510;46.704;38.274;2023-02-28T14:20:42;4.81;92.50
75865;HTU21D;64510;46.704;38.274;2023-02-28T14:25:53;4.82;92.33
75865;HTU21D;64510;46.704;38.274;2023-02-28T14:31:40;4.77;92.35
75865;HTU21D;64510;46.704;38.274;2023-02-28T14:36:41;4.76;92.42
75865;HTU21D;64510;46.704;38.274;2023-02-28T14:39:13;4.76;92.39
75865;HTU21D;64510;46.704;38.274;2023-02-28T14:41:41;4.75;92.37
75865;HTU21D;64510;46.704;38.274;2023-02-28T14:44:19;4.76;92.34
75865;HTU21D;64510;46.704;38.274;2023-02-28T14:46:52;4.74;92.32
75865;HTU21D;64510;46.704;38.274;2023-02-28T14:49:20;4.78;92.32
75865;HTU21D;64510;46.704;38.274;2023-02-28T14:51:50;4.82;92.20
75865;HTU21D;64510;46.704;38.274;2023-02-28T14:54:27;4.89;92.08
75865;HTU21D;64510;46.704;38.274;2023-02-28T14:56:54;4.93;91.95
75865;HTU21D;64510;46.704;38.274;2023-02-28T14:59:32;4.98;91.87
75865;HTU21D;64510;46.704;38.274;2023-02-28T15:02:18;5.01;91.76
75865;HTU21D;64510;46.704;38.274;2023-02-28T15:04:56;5.03;91.76
75865;HTU21D;64510;46.704;38.274;2023-02-28T15:07:22;5.05;91.70
75865;HTU21D;64510;46.704;38.274;2023-02-28T15:12:39;5.06;91.63
75865;HTU21D;64510;46.704;38.274;2023-02-28T15:15:13;5.05;91.60
75865;HTU21D;64510;46.704;38.274;2023-02-28T15:17:46;5.02;91.60
75865;HTU21D;64510;46.704;38.274;2023-02-28T15:20:15;4.98;91.60
75865;HTU21D;64510;46.704;38.274;2023-02-28T15:22:41;4.96;91.68
75865;HTU21D;64510;46.704;38.274;2023-02-28T15:25:13;4.93;91.72
75865;HTU21D;64510;46.704;38.274;2023-02-28T15:27:48;4.92;91.76
75865;HTU21D;64510;46.704;38.274;2023-02-28T15:30:18;4.94;91.95
75865;HTU21D;64510;46.704;38.274;2023-02-28T15:32:45;5.03;92.24
75865;HTU21D;64510;46.704;38.274;2023-02-28T15:35:29;5.09;92.42
75865;HTU21D;64510;46.704;38.274;2023-02-28T15:40:46;5.18;92.85
75865;HTU21D;64510;46.704;38.274;2023-02-28T15:46:06;5.28;93.06
75865;HTU21D;64510;46.704;38.274;2023-02-28T15:48:58;5.25;93.03
75865;HTU21D;64510;46.704;38.274;2023-02-28T15:51:24;5.25;93.08
75865;HTU21D;64510;46.704;38.274;2023-02-28T15:54:07;5.25;93.33
75865;HTU21D;64510;46.704;38.274;2023-02-28T15:56:43;5.23;93.21
75865;HTU21D;64510;46.704;38.274;2023-02-28T15:59:16;5.20;93.17
75865;HTU21D;64510;46.704;38.274;2023-02-28T16:01:43;5.19;93.33
75865;HTU21D;64510;46.704;38.274;2023-02-28T16:04:17;5.19;93.36
75865;HTU21D;64510;46.704;38.274;2023-02-28T16:07:02;5.11;93.44
75865;HTU21D;64510;46.704;38.274;2023-02-28T16:09:28;5.05;93.55
75865;HTU21D;64510;46.704;38.274;2023-02-28T16:11:59;5.02;93.65
75865;HTU21D;64510;46.704;38.274;2023-02-28T16:14:28;4.97;93.70
75865;HTU21D;64510;46.704;38.274;2023-02-28T16:17:01;4.93;93.77
75865;HTU21D;64510;46.704;38.274;2023-02-28T16:19:27;4.87;93.89
75865;HTU21D;64510;46.704;38.274;2023-02-28T16:21:53;4.83;93.98
75865;HTU21D;64510;46.704;38.274;2023-02-28T16:24:19;4.78;94.12
75865;HTU21D;64510;46.704;38.274;2023-02-28T16:26:47;4.76;94.17
75865;HTU21D;64510;46.704;38.274;2023-02-28T16:29:26;4.71;94.33
75865;HTU21D;64510;46.704;38.274;2023-02-28T16:31:53;4.71;94.32
75865;HTU21D;64510;46.704;38.274;2023-02-28T16:34:19;4.69;94.42
75865;HTU21D;64510;46.704;38.274;2023-02-28T16:36:50;4.78;94.33
75865;HTU21D;64510;46.704;38.274;2023-02-28T16:39:16;4.88;94.22
75865;HTU21D;64510;46.704;38.274;2023-02-28T16:41:44;4.95;94.12
75865;HTU21D;64510;46.704;38.274;2023-02-28T16:44:19;5.03;93.91
75865;HTU21D;64510;46.704;38.274;2023-02-28T16:46:47;5.06;93.69
75865;HTU21D;64510;46.704;38.274;2023-02-28T16:49:13;5.10;93.64
75865;HTU21D;64510;46.704;38.274;2023-02-28T16:51:39;5.21;93.65
75865;HTU21D;64510;46.704;38.274;2023-02-28T16:54:05;5.26;93.43
75865;HTU21D;64510;46.704;38.274;2023-02-28T16:56:34;5.31;93.29
75865;HTU21D;64510;46.704;38.274;2023-02-28T16:59:02;5.36;93.32
75865;HTU21D;64510;46.704;38.274;2023-02-28T17:01:28;5.45;93.31
75865;HTU21D;64510;46.704;38.274;2023-02-28T17:03:54;5.53;93.14
75865;HTU21D;64510;46.704;38.274;2023-02-28T17:06:24;5.53;92.86
75865;HTU21D;64510;46.704;38.274;2023-02-28T17:08:51;5.52;92.75
75865;HTU21D;64510;46.704;38.274;2023-02-28T17:11:18;5.48;92.77
75865;HTU21D;64510;46.704;38.274;2023-02-28T17:13:44;5.41;92.72
75865;HTU21D;64510;46.704;38.274;2023-02-28T17:16:30;5.36;92.63
75865;HTU21D;64510;46.704;38.274;2023-02-28T17:19:05;5.30;92.51
75865;HTU21D;64510;46.704;38.274;2023-02-28T17:21:32;5.24;92.27
75865;HTU21D;64510;46.704;38.274;2023-02-28T17:24:00;5.17;92.04
75865;HTU21D;64510;46.704;38.274;2023-02-28T17:26:26;5.06;91.95
75865;HTU21D;64510;46.704;38.274;2023-02-28T17:28:55;4.96;91.89
75865;HTU21D;64510;46.704;38.274;2023-02-28T17:31:24;4.88;91.82
75865;HTU21D;64510;46.704;38.274;2023-02-28T17:33:53;4.73;91.74
75865;HTU21D;64510;46.704;38.274;2023-02-28T17:36:24;4.64;91.83
75865;HTU21D;64510;46.704;38.274;2023-02-28T17:38:52;4.58;91.83
75865;HTU21D;64510;46.704;38.274;2023-02-28T17:41:22;4.53;91.79
75865;HTU21D;64510;46.704;38.274;2023-02-28T17:43:51;4.50;91.70
75865;HTU21D;64510;46.704;38.274;2023-02-28T17:46:20;4.46;91.68
75865;HTU21D;64510;46.704;38.274;2023-02-28T17:48:48;4.43;91.63
75865;HTU21D;64510;46.704;38.274;2023-02-28T17:51:15;4.43;91.56
75865;HTU21D;64510;46.704;38.274;2023-02-28T17:53:41;4.37;91.51